Date,TemperatureHighF,TemperatureAvgF,TemperatureLowF,DewpointHighF,DewpointAvgF,DewpointLowF,HumidityHigh,HumidityAvg,HumidityLow,PressureMaxIn,PressureMinIn,WindSpeedMaxMPH,WindSpeedAvgMPH,GustSpeedMaxMPH,PrecipitationSumIn
2013-1-7,22,20,19,20,18,17,92,91,90,0.00,40.00,1,1,4,0.00
2013-1-8,25,20,9,22,17,5,92,90,85,0.00,40.00,2,1,5,0.00
2013-1-9,16,11,5,12,8,0,88,86,81,0.00,40.00,1,1,3,0.00
2013-1-10,24,20,16,22,18,13,92,90,88,0.00,40.00,2,1,6,0.00
2013-1-11,26,23,20,24,21,18,93,92,91,0.00,40.00,2,1,5,0.00
2013-1-12,36,29,20,35,27,18,97,94,91,0.00,40.00,5,3,19,0.10
2013-1-13,37,35,34,36,34,33,99,97,91,0.00,40.00,5,3,12,0.18
2013-1-14,47,40,35,38,31,15,99,73,47,0.00,40.00,9,5,25,0.15
2013-1-15,33,24,17,19,15,12,85,69,46,0.00,40.00,6,1,15,0.02
2013-1-16,22,21,20,19,17,15,91,87,80,0.00,40.00,0,0,1,0.00
2013-1-17,20,17,11,18,14,8,91,86,82,0.00,40.00,0,0,0,0.00
2013-1-18,13,9,-3,9,5,-8,86,83,77,0.00,40.00,0,0,0,0.00
2013-1-19,21,16,11,18,12,7,88,85,81,0.00,40.00,1,0,1,0.00
2013-1-20,26,23,15,23,19,12,92,87,78,0.00,40.00,0,0,1,0.00
2013-1-21,25,20,9,23,17,5,93,88,84,0.00,40.00,0,0,0,0.00
2013-1-22,29,27,24,27,25,22,94,93,91,0.00,40.00,0,0,0,0.00
2013-1-23,32,25,17,29,23,15,94,92,80,0.00,40.00,2,0,5,0.00
2013-1-24,39,29,16,29,24,13,95,84,64,0.00,40.00,4,1,13,0.04
2013-1-25,36,20,-9,28,11,-15,92,68,48,0.00,40.00,5,2,12,0.04
2013-1-26,2,-8,-17,-5,-16,-25,73,69,65,0.00,40.00,1,0,1,0.01
2013-1-27,-1,-13,-23,-11,-22,-31,73,63,56,0.00,40.00,1,0,2,0.00
2013-1-28,5,-1,-22,0,-10,-31,79,66,51,0.00,40.00,2,1,4,0.00
2013-1-29,13,8,5,6,2,-1,79,75,69,0.00,40.00,2,1,4,0.00
2013-1-30,23,18,13,20,13,5,89,82,68,0.00,40.00,2,1,10,0.00
2013-1-31,35,31,27,34,30,26,98,96,94,0.00,40.00,3,1,7,0.03
2013-2-1,30,26,24,29,25,23,98,94,90,0.00,40.00,3,2,8,0.02
2013-2-2,33,27,20,29,25,18,95,92,84,0.00,40.00,2,2,5,0.02
2013-2-3,33,28,24,31,27,23,98,95,94,0.00,40.00,2,1,5,0.01
2013-2-4,38,32,26,33,28,25,97,87,64,0.00,40.00,5,2,12,0.03
2013-2-5,31,23,12,25,20,9,93,89,76,0.00,40.00,3,0,5,0.01
2013-2-6,30,24,15,27,22,12,94,92,88,0.00,40.00,2,0,5,0.00
2013-2-7,26,24,22,24,22,21,95,92,86,0.00,40.00,3,1,8,0.00
2013-2-8,33,28,24,30,26,22,97,94,89,0.00,40.00,3,1,7,0.01
2013-2-9,35,29,26,32,27,23,95,89,61,0.00,40.00,6,3,17,0.06
2013-2-10,40,34,29,33,30,27,96,87,69,0.00,40.00,7,3,22,0.33
2013-2-11,31,24,6,30,20,2,97,85,65,0.00,40.00,3,1,9,0.04
2013-2-12,26,20,9,22,17,5,92,88,80,0.00,40.00,1,0,6,0.00
2013-2-13,31,25,20,25,22,18,93,90,78,0.00,40.00,4,1,7,0.01
2013-2-14,34,27,23,29,24,21,96,87,67,0.00,40.00,6,2,16,0.02
2013-2-15,32,28,23,29,26,20,96,92,84,0.00,40.00,3,1,9,0.02
2013-2-16,26,19,3,20,14,-2,93,81,62,0.00,40.00,4,2,12,0.01
2013-2-17,25,21,17,22,17,11,92,87,81,0.00,40.00,4,3,14,0.00
2013-2-18,20,13,-3,11,6,-8,85,71,53,0.00,40.00,4,2,13,0.00
2013-2-19,15,10,-3,11,3,-8,84,73,63,0.00,40.00,4,3,10,0.00
2013-2-20,27,19,13,18,13,10,87,79,65,0.00,40.00,4,2,12,0.00
2013-2-21,30,23,14,22,18,11,91,83,63,0.00,40.00,4,1,8,0.06
2013-2-22,29,23,7,22,18,3,94,81,60,0.00,40.00,5,2,11,0.01
2013-2-23,26,19,7,20,14,3,91,82,66,0.00,40.00,5,2,10,0.00
2013-2-24,30,24,16,25,20,13,93,88,76,0.00,40.00,3,2,7,0.00
2013-2-25,31,23,8,22,18,4,90,81,66,0.00,40.00,3,2,7,0.05
2013-2-26,39,27,18,24,19,14,91,75,45,0.00,40.00,3,1,7,0.23
2013-2-27,35,26,9,22,17,5,87,70,44,0.00,40.00,4,2,9,0.10
2013-2-28,37,27,20,25,20,17,90,78,52,0.00,40.00,3,1,9,0.21
2013-3-1,36,27,18,30,24,15,93,87,75,0.00,40.00,3,1,6,0.04
2013-3-2,38,26,15,29,21,12,94,83,60,0.00,40.00,4,1,7,0.01
2013-3-3,34,22,6,21,15,2,87,74,51,0.00,40.00,3,2,7,0.01
2013-3-4,39,28,16,21,18,13,88,69,44,0.00,40.00,3,2,6,0.00
2013-3-5,40,28,15,27,21,12,88,75,52,0.00,40.00,4,1,7,0.00
2013-3-6,37,26,16,24,19,13,90,77,54,0.00,40.00,3,1,7,0.00
2013-3-7,37,29,19,23,21,16,89,72,52,0.00,40.00,12,3,23,0.00
2013-3-8,45,38,29,28,24,20,78,56,43,0.00,40.00,7,4,21,0.00
2013-3-9,43,37,31,31,25,21,92,63,42,0.00,40.00,4,2,11,0.00
2013-3-10,35,32,29,31,30,27,97,92,85,0.00,40.00,3,1,9,0.12
2013-3-11,41,29,21,29,25,16,96,87,58,0.00,40.00,3,1,8,0.19
2013-3-12,37,25,2,18,10,-3,89,58,32,0.00,40.00,4,2,10,0.08
2013-3-13,34,21,-4,15,6,-10,80,56,33,0.00,40.00,4,2,7,0.01
2013-3-14,31,19,8,8,5,0,78,54,37,0.00,40.00,6,3,11,0.00
2013-3-15,35,22,-4,9,3,-10,77,48,24,0.00,40.00,3,2,8,0.00
2013-3-16,33,19,-6,10,4,-12,76,53,32,0.00,40.00,4,2,8,0.00
2013-3-17,32,19,-4,12,2,-10,77,50,31,0.00,40.00,4,2,9,0.00
2013-3-18,32,19,-5,10,3,-11,76,52,32,0.00,40.00,4,2,9,0.00
2013-3-19,31,20,-6,5,-3,-12,78,40,22,0.00,40.00,7,4,16,0.00
2013-3-20,26,16,-10,1,-5,-17,70,41,26,0.00,40.00,5,3,10,0.00
2013-3-21,31,19,-8,13,2,-14,73,50,32,0.00,40.00,4,2,9,0.00
2013-3-22,36,28,20,28,18,6,81,67,49,0.00,40.00,6,3,16,0.00
2013-3-23,33,30,24,29,25,13,93,80,69,0.00,40.00,6,3,14,0.04
2013-3-24,26,22,17,22,17,13,92,81,63,0.00,40.00,4,2,8,0.02
2013-3-25,23,19,6,21,16,1,92,86,73,0.00,40.00,4,2,9,0.00
2013-3-26,23,11,-2,3,0,-11,80,62,40,0.00,40.00,4,2,9,0.15
2013-3-27,23,12,-16,9,0,-23,80,61,45,0.00,40.00,4,2,10,0.20
2013-3-28,28,21,12,22,14,6,90,76,61,0.00,40.00,5,3,9,0.05
2013-3-29,39,28,20,31,24,18,97,85,71,0.00,40.00,4,2,7,0.10
2013-3-30,45,34,25,32,28,24,98,83,55,0.00,40.00,4,1,7,0.14
2013-3-31,47,34,20,35,28,18,96,82,47,0.00,40.00,5,2,9,0.04
2013-4-1,44,34,27,29,24,21,96,72,42,0.00,40.00,5,2,9,0.00
2013-4-2,46,33,14,23,20,11,88,62,36,0.00,40.00,6,2,12,0.00
2013-4-3,48,36,26,26,21,19,79,57,32,0.00,40.00,6,2,11,0.00
2013-4-4,46,34,13,22,14,4,87,49,20,0.00,40.00,6,3,11,0.00
2013-4-5,40,30,7,17,11,2,80,46,27,0.00,40.00,5,3,11,0.00
2013-4-6,29,24,19,23,18,10,92,79,55,0.00,40.00,4,2,7,0.05
2013-4-7,31,24,16,23,12,5,93,62,33,0.00,40.00,6,3,14,0.10
2013-4-8,21,16,-1,16,10,-6,89,77,63,0.00,40.00,4,2,9,0.03
2013-4-9,30,20,12,15,9,4,89,66,37,0.00,40.00,5,2,10,0.30
2013-4-10,29,19,10,12,8,4,84,62,37,0.00,40.00,4,3,11,0.07
2013-4-11,31,19,-6,9,3,-12,85,53,32,0.00,40.00,5,3,13,0.04
2013-4-12,34,24,-8,7,-2,-15,71,36,22,0.00,40.00,6,3,11,0.01
2013-4-13,38,28,-5,6,1,-13,69,35,21,0.00,40.00,5,3,14,0.00
2013-4-14,41,30,4,12,7,-2,74,42,21,0.00,40.00,5,2,10,0.00
2013-4-15,44,32,10,12,8,3,74,41,23,0.00,40.00,5,3,12,0.00
2013-4-16,41,30,4,14,9,-2,77,44,26,0.00,40.00,7,3,15,0.00
2013-4-17,38,31,4,18,11,-1,78,44,32,0.00,40.00,5,3,12,0.00
2013-4-18,42,36,6,17,12,1,79,40,29,0.00,40.00,5,3,11,0.00
2013-4-19,49,39,9,19,12,4,82,37,22,0.00,40.00,5,3,10,0.00
2013-4-20,52,41,13,19,16,9,82,39,24,0.00,40.00,6,3,11,0.00
2013-4-21,46,37,19,26,20,14,81,54,30,0.00,40.00,6,3,12,0.00
2013-4-22,54,39,19,29,23,17,91,58,30,0.00,40.00,6,2,11,0.00
2013-4-23,42,36,31,39,32,24,97,86,75,0.00,40.00,3,1,7,0.14
2013-4-24,44,37,32,37,34,28,100,88,71,0.00,40.00,4,2,9,0.02
2013-4-25,48,38,25,32,15,3,93,46,19,0.00,40.00,7,5,20,0.00
2013-4-26,45,33,18,19,9,2,72,39,21,0.00,40.00,5,2,15,0.00
2013-4-27,47,36,16,22,12,6,86,45,19,0.00,40.00,8,4,19,0.00
2013-4-28,47,35,17,14,9,3,72,37,20,0.00,40.00,7,3,16,0.00
2013-4-29,47,34,18,22,17,12,81,54,25,0.00,40.00,5,2,9,0.00
2013-4-30,43,38,29,33,24,21,90,60,43,0.00,40.00,5,3,14,0.00
2013-5-1,49,37,22,29,23,20,93,62,34,0.00,40.00,6,2,12,0.00
2013-5-2,43,37,31,38,33,24,96,85,68,0.00,40.00,4,2,7,0.07
2013-5-3,44,38,34,36,34,32,95,86,71,0.00,40.00,4,2,11,0.02
2013-5-4,39,36,33,36,34,32,98,94,87,0.00,40.00,3,2,6,0.52
2013-5-5,50,40,30,34,25,17,99,61,30,0.00,40.00,6,3,12,0.04
2013-5-6,50,39,27,30,24,21,87,57,36,0.00,40.00,5,2,11,0.00
2013-5-7,49,40,29,29,26,22,85,60,41,0.00,40.00,5,2,10,0.00
2013-5-8,56,44,27,31,28,24,91,57,29,0.00,40.00,5,3,12,0.00
2013-5-9,55,44,27,31,28,24,88,55,38,0.00,40.00,5,2,10,0.00
2013-5-10,62,52,27,37,28,-100,91,46,26,0.00,40.00,5,3,12,0.00
2013-5-11,60,48,38,40,34,-100,88,62,37,0.00,40.00,5,2,10,0.00
2013-5-12,54,46,38,46,41,37,98,83,62,0.00,40.00,3,1,7,0.13
2013-5-13,56,46,36,44,30,11,100,63,22,0.00,40.00,6,3,12,0.08
2013-5-14,47,41,28,27,20,14,72,45,30,0.00,40.00,6,3,10,0.01
2013-5-15,52,44,30,32,25,22,81,50,31,0.00,40.00,8,4,17,0.00
2013-5-16,42,36,37,38,15,-100,95,77,51,0.00,40.00,4,3,10,0.02
2013-5-17,38,35,32,37,29,-100,98,96,92,0.00,40.00,3,1,7,0.65
2013-5-18,42,33,26,30,27,23,95,78,54,0.00,40.00,4,2,8,0.22
2013-5-19,49,39,20,26,18,15,93,48,27,0.00,40.00,5,3,12,0.09
2013-5-20,55,41,23,26,21,16,86,50,25,0.00,40.00,5,3,11,0.00
2013-5-21,54,46,26,31,28,21,84,51,37,0.00,40.00,6,3,14,0.00
2013-5-22,60,46,29,38,32,25,88,61,37,0.00,40.00,6,3,13,0.00
2013-5-23,57,48,40,45,41,37,99,77,51,0.00,40.00,4,2,8,0.03
2013-5-24,67,57,32,43,38,30,95,53,35,0.00,40.00,5,3,11,0.01
2013-5-25,72,60,31,40,33,19,88,42,16,0.00,40.00,6,4,15,0.00
2013-5-26,62,54,30,41,37,25,82,54,37,0.00,40.00,4,2,9,0.00
2013-5-27,75,60,40,45,40,37,90,53,28,0.00,40.00,5,3,11,0.00
2013-5-28,76,63,36,49,44,34,91,51,32,0.00,40.00,5,3,10,0.00
2013-5-29,80,68,39,47,42,36,89,44,24,0.00,40.00,5,3,11,0.00
2013-5-30,71,63,39,45,42,37,91,50,34,0.00,40.00,5,3,11,0.00
2013-5-31,63,55,37,47,44,35,92,67,51,0.00,40.00,6,4,13,0.00
2013-6-1,56,50,46,45,43,42,92,77,65,0.00,40.00,4,2,10,0.00
2013-6-2,60,50,45,49,45,43,99,84,58,0.00,40.00,4,2,9,0.51
2013-6-3,57,50,41,46,42,39,95,76,56,0.00,40.00,4,2,7,0.02
2013-6-4,63,52,42,45,40,32,97,68,36,0.00,40.00,7,3,15,0.01
2013-6-5,63,54,40,41,36,31,82,53,36,0.00,40.00,7,3,12,0.01
2013-6-6,68,59,31,40,36,28,89,44,29,0.00,40.00,6,3,13,0.00
2013-6-7,76,59,39,41,38,34,82,50,23,0.00,40.00,6,3,14,0.00
2013-6-8,73,61,40,45,42,36,87,52,33,0.00,40.00,5,3,11,0.00
2013-6-9,77,66,44,48,42,37,88,46,25,0.00,40.00,6,3,11,0.00
2013-6-10,77,66,45,50,42,39,79,46,29,0.00,40.00,7,3,12,0.00
2013-6-11,77,65,42,50,43,38,87,49,27,0.00,40.00,5,3,12,0.00
2013-6-12,78,70,43,47,41,37,86,39,24,0.00,40.00,5,3,10,0.00
2013-6-13,73,62,42,50,45,38,86,55,38,0.00,40.00,5,3,12,0.00
2013-6-14,73,62,40,49,45,37,91,56,34,0.00,40.00,6,3,11,0.00
2013-6-15,74,65,41,50,48,39,94,57,40,0.00,40.00,5,3,9,0.00
2013-6-16,82,72,48,55,52,45,92,52,39,0.00,40.00,5,3,9,0.00
2013-6-17,84,75,57,54,51,47,89,45,33,0.00,40.00,5,3,10,0.00
2013-6-18,87,76,51,59,47,39,92,41,19,0.00,40.00,7,3,20,0.00
2013-6-19,78,66,49,53,44,40,85,47,31,0.00,40.00,7,3,18,0.00
2013-6-20,68,57,43,52,48,40,89,72,53,0.00,40.00,4,2,10,0.00
2013-6-22,69,61,44,48,45,41,94,58,38,0.00,40.00,4,2,10,0.00
2013-6-23,71,62,44,51,46,42,91,59,41,0.00,40.00,4,2,9,0.00
2013-6-24,76,64,49,50,48,46,90,60,38,0.00,40.00,4,2,10,0.00
2013-6-25,77,68,52,54,51,45,89,55,41,0.00,40.00,5,2,12,0.00
2013-6-26,84,68,48,58,51,46,94,60,30,0.00,40.00,5,2,19,0.00
2013-6-27,71,63,55,56,53,50,86,70,58,0.00,40.00,5,2,11,0.00
2013-6-28,62,57,55,54,52,51,88,82,72,0.00,40.00,3,2,10,0.00
2013-6-29,66,59,53,55,52,49,94,79,59,0.00,40.00,3,1,7,0.00
2013-6-30,60,56,54,54,50,46,87,80,72,0.00,40.00,5,2,9,0.00
2013-7-1,57,54,50,52,50,46,96,86,71,0.00,40.00,3,1,8,0.02
2013-7-2,65,55,47,51,45,38,97,72,41,0.00,40.00,7,2,16,0.01
2013-7-3,61,55,47,49,45,39,92,71,49,0.00,40.00,5,2,14,0.00
2013-7-4,56,53,50,50,47,39,95,80,53,0.00,40.00,4,2,12,0.06
2013-7-5,62,54,47,51,48,46,98,82,58,0.00,40.00,3,2,8,0.05
2013-7-6,63,54,49,53,50,47,99,85,61,0.00,40.00,3,2,8,0.05
2013-7-7,67,56,49,53,49,44,100,79,47,0.00,40.00,7,2,18,0.02
2013-7-8,65,53,45,49,47,44,98,83,56,0.00,40.00,6,2,10,0.03
2013-7-9,68,58,49,51,48,45,99,73,44,0.00,40.00,5,2,11,0.01
2013-7-10,74,62,51,55,47,-100,98,64,44,0.00,40.00,5,2,11,0.00
2013-7-11,79,65,51,57,51,48,99,66,38,0.00,40.00,4,2,12,0.02
2013-7-12,78,69,47,55,50,45,95,54,38,0.00,40.00,4,2,9,0.00
2013-7-13,76,67,54,54,51,48,85,59,44,0.00,40.00,5,3,12,0.00
2013-7-14,69,61,53,54,52,50,97,74,57,0.00,40.00,5,3,10,0.00
2013-7-15,63,57,49,54,51,47,96,81,72,0.00,40.00,4,2,7,0.00
2013-7-16,71,61,53,56,53,51,97,77,54,0.00,40.00,4,2,12,0.00
2013-7-17,74,64,55,60,55,53,94,75,58,0.00,40.00,5,2,11,0.00
2013-7-18,77,66,52,61,57,51,97,74,56,0.00,40.00,5,2,12,0.00
2013-7-19,74,67,61,57,54,50,76,62,46,0.00,40.00,6,3,12,0.00
2013-7-20,74,62,54,59,50,-100,99,69,41,0.00,40.00,5,2,10,0.21
2013-7-21,79,71,55,52,48,40,81,46,28,0.00,40.00,5,4,14,0.01
2013-7-22,80,72,59,53,49,44,73,45,34,0.00,40.00,6,3,10,0.00
2013-7-23,80,70,51,59,51,47,88,54,36,0.00,40.00,5,2,9,0.00
2013-7-24,82,73,50,58,54,47,89,52,38,0.00,40.00,5,3,11,0.00
2013-7-25,78,66,57,63,57,52,99,74,47,0.00,40.00,5,2,12,0.04
2013-7-26,72,63,57,60,58,55,98,84,60,0.00,40.00,5,2,10,0.01
2013-7-27,74,65,59,59,57,54,92,76,58,0.00,40.00,4,2,9,0.01
2013-7-28,77,65,54,61,57,52,97,77,55,0.00,40.00,5,2,9,0.00
2013-7-29,77,66,52,59,56,51,97,73,52,0.00,40.00,5,2,10,0.00
2013-7-30,76,69,52,59,57,51,98,68,53,0.00,40.00,5,3,10,0.00
2013-7-31,74,65,51,58,55,49,98,72,55,0.00,40.00,5,2,11,0.00
2013-8-1,73,63,52,58,55,51,96,76,59,0.00,40.00,3,2,9,0.00
2013-8-2,77,63,49,57,53,48,99,74,42,0.00,40.00,5,2,12,0.01
2013-8-3,68,63,52,58,49,45,98,65,46,0.00,40.00,5,3,17,0.01
2013-8-4,67,61,55,54,50,45,87,66,53,0.00,40.00,4,2,14,0.00
2013-8-5,67,60,52,55,51,45,99,75,46,0.00,40.00,4,2,9,0.01
2013-8-6,65,59,51,54,50,46,93,74,54,0.00,40.00,4,1,8,0.00
2013-8-7,62,56,52,58,55,51,100,96,80,0.00,40.00,2,1,5,0.12
2013-8-8,65,57,52,58,52,45,100,86,59,0.00,40.00,5,2,12,0.05
2013-8-9,57,53,49,54,52,49,100,97,86,0.00,40.00,4,2,9,0.37
2013-8-10,62,55,49,58,54,49,100,96,86,0.00,40.00,2,1,6,0.39
2013-8-11,58,54,49,57,54,49,100,99,96,0.00,40.00,3,1,6,0.58
2013-8-12,69,60,55,61,57,55,100,91,69,0.00,40.00,4,2,7,0.41
2013-8-13,73,59,51,61,53,-100,100,86,51,0.00,40.00,4,2,10,0.01
2013-8-14,60,55,53,54,50,-100,96,83,69,0.00,40.00,3,1,7,0.00
2013-8-15,69,53,48,52,36,-100,99,74,50,0.00,40.00,4,2,9,0.00
2013-8-16,59,51,44,57,48,-100,100,94,80,0.00,40.00,2,0,4,0.08
2013-8-17,69,57,50,57,54,50,100,88,60,0.00,40.00,2,1,5,0.10
2013-8-18,61,57,53,59,56,53,100,97,90,0.00,40.00,2,1,5,0.60
2013-8-21,58,53,50,57,53,50,100,98,94,0.00,40.00,3,2,5,0.49
2013-8-22,55,53,51,55,53,51,100,99,96,0.00,40.00,2,1,5,0.54
2013-8-23,67,58,52,57,54,52,100,87,61,0.00,40.00,4,1,10,0.02
2013-8-24,70,58,47,53,49,42,100,78,40,0.00,40.00,5,2,10,0.02
2013-8-25,68,54,34,49,42,34,99,70,37,0.00,40.00,4,2,7,0.00
2013-8-26,69,55,37,50,46,37,99,74,48,0.00,40.00,4,1,8,0.00
2013-8-27,57,49,46,51,47,45,99,95,77,0.00,40.00,2,1,4,0.00
2013-8-28,63,57,50,55,51,49,100,83,65,0.00,40.00,5,2,9,0.40
2013-8-29,56,52,50,55,52,50,100,98,95,0.00,40.00,2,1,9,0.24
2013-8-30,60,54,49,56,52,49,100,95,79,0.00,40.00,3,1,6,0.01
2013-9-1,58,53,50,54,52,50,100,95,81,0.00,40.00,2,1,4,0.06
2013-9-2,63,56,52,54,50,46,100,85,54,0.00,40.00,9,4,27,0.21
2013-9-3,66,56,50,55,49,42,98,79,54,0.00,40.00,8,4,17,0.08
2013-9-4,57,52,47,54,49,44,100,92,63,0.00,40.00,4,2,10,1.12
2013-9-5,63,52,41,47,43,40,100,74,49,0.00,40.00,6,3,18,0.01
2013-9-6,57,47,41,51,45,40,99,94,79,0.00,40.00,3,1,11,0.14
2013-9-7,60,52,47,54,50,47,100,93,77,0.00,40.00,3,2,7,0.08
2013-9-18,49,45,43,46,44,43,100,97,85,0.00,40.00,0,0,2,0.04
2013-9-19,52,44,35,44,37,25,99,80,35,0.00,40.00,3,2,10,0.20
2013-9-20,49,38,24,29,24,20,96,62,35,0.00,40.00,4,2,11,0.01
2013-9-21,45,36,26,39,30,25,97,81,55,0.00,40.00,3,1,8,0.01
2013-9-22,41,39,35,38,31,26,96,75,61,0.00,40.00,3,2,11,0.01
2013-9-23,43,35,28,38,32,26,98,88,64,0.00,40.00,4,1,13,0.14
2013-9-24,44,34,25,36,31,24,98,88,68,0.00,40.00,3,1,6,0.03
2013-10-17,52,46,42,45,42,39,99,86,68,0.00,40.00,5,3,16,0.08
2013-10-18,53,49,42,45,35,29,95,63,39,0.00,40.00,9,5,29,0.02
2013-10-19,53,50,43,39,32,28,78,52,38,0.00,40.00,8,5,23,0.01
2013-10-20,51,48,45,33,29,26,55,48,42,0.00,40.00,7,5,17,0.00
2013-10-21,48,40,29,37,34,28,96,80,61,0.00,40.00,4,2,7,0.00
2013-10-22,47,38,32,39,34,29,97,85,58,0.00,40.00,4,2,9,0.00
2013-10-23,39,31,22,32,28,20,99,88,62,0.00,40.00,2,1,6,0.00
2013-10-24,34,29,19,30,25,17,93,85,73,0.00,40.00,4,2,12,0.00
2013-10-25,47,35,26,37,30,25,96,84,54,0.00,40.00,3,2,7,0.00
2013-10-26,41,32,24,36,29,23,96,89,72,0.00,40.00,4,1,7,0.00
2013-10-27,40,35,30,39,34,29,99,96,85,0.00,40.00,6,3,18,0.39
2013-10-28,52,43,38,44,38,-100,99,88,54,0.00,40.00,7,4,22,0.75
2013-10-29,51,44,35,38,33,29,89,67,46,0.00,40.00,6,3,17,0.01
2013-10-30,43,36,31,35,33,30,96,88,72,0.00,40.00,3,1,7,0.00
2013-10-31,42,37,32,42,36,30,99,97,91,0.00,40.00,2,1,6,0.09
2013-11-1,43,39,36,42,39,36,100,98,92,0.00,40.00,1,0,4,0.13
2013-11-2,42,38,36,40,38,35,100,97,88,0.00,40.00,4,1,10,0.03
2013-11-3,39,36,32,35,34,31,97,90,81,0.00,40.00,6,3,13,0.01
2013-11-4,37,32,28,34,31,28,98,95,79,0.00,40.00,2,1,5,0.00
2013-11-5,41,32,26,34,25,15,98,79,46,0.00,40.00,3,1,11,0.00
2013-11-6,29,23,16,21,18,14,93,79,62,0.00,40.00,1,0,4,0.00
2013-11-7,29,24,17,21,18,14,92,78,63,0.00,40.00,4,2,9,0.00
2013-11-8,26,20,13,18,14,10,92,80,65,0.00,40.00,2,1,4,0.00
2013-11-9,29,25,15,28,23,13,96,92,80,0.00,40.00,2,1,6,0.00
2013-11-10,37,32,29,35,32,28,99,97,91,0.00,40.00,3,2,10,0.34
2013-11-11,31,26,17,31,25,15,98,94,86,0.00,40.00,2,1,5,0.01
2013-11-12,10,9,7,7,6,4,88,87,86,0.00,40.00,0,0,0,0.00
2013-11-13,25,21,11,23,19,8,94,91,85,0.00,40.00,3,1,4,0.00
2013-11-14,33,28,18,32,27,16,98,96,92,0.00,40.00,3,1,7,0.00
2013-11-16,18,16,15,14,13,12,90,87,84,0.00,40.00,1,1,5,0.00
2013-11-17,13,11,10,7,7,5,86,81,76,0.00,40.00,3,2,8,0.00
2013-11-19,-1,-1,-1,-6,-6,-6,79,79,79,0.00,40.00,0,0,0,0.00
2013-11-20,-1,-2,-5,-6,-7,-11,79,78,75,0.00,40.00,2,1,5,0.00
2013-11-21,14,8,2,11,4,-3,86,81,78,0.00,40.00,3,2,8,0.00
2013-11-22,29,22,15,28,19,12,96,89,80,0.00,40.00,5,2,14,0.00
2013-11-23,32,28,13,22,19,11,91,69,60,0.00,40.00,7,4,20,0.00
2013-11-24,31,27,19,26,24,17,95,88,66,0.00,40.00,3,2,12,0.00
2013-11-25,26,22,18,24,20,16,94,93,91,0.00,40.00,3,1,6,0.00
2013-11-26,30,26,22,27,24,21,96,94,88,0.00,40.00,1,0,3,0.00
2013-11-27,30,27,22,28,25,12,97,92,66,0.00,40.00,4,1,10,0.00
2013-11-28,21,15,9,10,4,-3,79,60,48,0.00,40.00,5,3,12,0.00
2013-12-2,5,5,5,1,1,1,83,83,83,0.00,40.00,0,0,2,0.00
2013-12-3,11,10,10,7,7,6,86,85,85,0.00,40.00,0,0,0,0.00
2013-12-12,13,11,0,9,6,-100,88,86,81,0.00,40.00,2,1,4,0.00
2013-12-13,17,13,11,15,10,6,91,87,80,0.00,40.00,2,1,8,0.00
2013-12-14,20,18,16,18,15,13,92,91,89,0.00,40.00,3,1,9,0.00
2013-12-15,17,12,-3,15,8,-8,92,86,78,0.00,40.00,3,1,7,0.00
2013-12-16,-4,-4,-4,-9,-9,-9,80,80,80,0.00,40.00,0,0,0,0.00
2013-12-18,5,2,-3,1,-2,-8,83,81,78,0.00,40.00,2,1,5,0.00
2013-12-19,11,9,5,8,6,1,87,86,84,0.00,40.00,2,1,7,0.00
2013-12-20,21,16,8,19,13,4,93,90,85,0.00,40.00,1,0,2,0.00
2013-12-21,26,24,22,25,23,20,97,95,93,0.00,40.00,1,1,4,0.00
2013-12-28,20,16,11,17,14,8,92,89,87,0.00,40.00,2,1,6,0.00
2013-12-29,18,15,10,16,13,7,93,89,87,0.00,40.00,2,0,4,0.00
2013-12-30,17,14,10,15,11,7,91,88,86,0.00,40.00,1,0,3,0.00
2013-12-31,20,18,13,18,16,11,92,90,89,0.00,40.00,2,1,6,0.00
2014-1-1,28,24,15,27,22,12,97,94,89,0.00,40.00,1,1,7,0.00
2014-1-2,32,27,21,31,27,20,98,97,94,0.00,40.00,1,0,1,0.00